createdAt,value
2018-07-30T00:01:25.656Z,25.70
2018-07-30T00:03:54.053Z,25.70
2018-07-30T00:06:22.474Z,25.80
2018-07-30T00:08:50.900Z,25.70
2018-07-30T00:11:19.292Z,25.60
2018-07-30T00:13:47.693Z,25.60
2018-07-30T00:16:16.069Z,25.50
2018-07-30T00:18:44.422Z,25.60
2018-07-30T00:21:12.823Z,25.60
2018-07-30T00:23:41.246Z,25.60
2018-07-30T00:26:09.676Z,25.60
2018-07-30T00:28:38.035Z,25.50
2018-07-30T00:31:06.474Z,25.50
2018-07-30T00:33:34.887Z,25.40
2018-07-30T00:36:03.339Z,25.40
2018-07-30T00:38:38.168Z,25.40
2018-07-30T00:43:34.707Z,25.30
2018-07-30T00:46:03.538Z,25.20
2018-07-30T00:48:31.974Z,25.10
2018-07-30T00:51:00.384Z,25.20
2018-07-30T00:53:28.777Z,25.20
2018-07-30T00:55:57.199Z,25.10
2018-07-30T00:58:25.613Z,25.10
2018-07-30T01:00:54.026Z,25.10
2018-07-30T01:03:22.411Z,25.20
2018-07-30T01:05:50.807Z,25.10
2018-07-30T01:08:19.225Z,25.10
2018-07-30T01:10:47.680Z,25.10
2018-07-30T01:13:16.996Z,25.10
2018-07-30T01:15:45.385Z,25.10
2018-07-30T01:18:13.748Z,25.00
2018-07-30T01:20:42.157Z,24.90
2018-07-30T01:25:38.695Z,24.80
2018-07-30T01:28:07.123Z,24.90
2018-07-30T01:30:35.519Z,24.90
2018-07-30T01:33:04.081Z,24.80
2018-07-30T01:35:32.457Z,24.80
2018-07-30T01:38:00.913Z,24.80
2018-07-30T01:40:29.309Z,24.80
2018-07-30T01:42:57.670Z,24.70
2018-07-30T01:45:26.044Z,24.70
2018-07-30T01:47:54.419Z,24.60
2018-07-30T01:50:22.836Z,24.50
2018-07-30T01:52:51.295Z,24.50
2018-07-30T01:55:19.713Z,24.60
2018-07-30T01:57:48.089Z,24.40
2018-07-30T02:00:16.611Z,24.40
2018-07-30T02:05:13.105Z,24.30
2018-07-30T02:07:42.393Z,24.20
2018-07-30T02:10:17.257Z,24.20
2018-07-30T02:12:45.653Z,24.10
2018-07-30T02:15:16.450Z,24.10
2018-07-30T02:17:45.103Z,24.00
2018-07-30T02:20:13.469Z,23.90
2018-07-30T02:22:41.884Z,23.80
2018-07-30T02:25:10.634Z,23.80
2018-07-30T02:27:39.013Z,23.70
2018-07-30T02:30:08.338Z,23.80
2018-07-30T02:32:37.027Z,23.80
2018-07-30T02:35:06.947Z,23.90
2018-07-30T02:37:35.459Z,24.00
2018-07-30T02:40:04.921Z,24.00
2018-07-30T02:42:33.338Z,24.10
2018-07-30T02:45:01.943Z,24.10
2018-07-30T02:47:30.338Z,24.20
2018-07-30T02:49:58.691Z,24.10
2018-07-30T02:52:27.100Z,24.00
2018-07-30T02:54:55.611Z,23.90
2018-07-30T02:57:24.006Z,23.90
2018-07-30T02:59:52.359Z,23.80
2018-07-30T03:02:20.738Z,23.80
2018-07-30T03:04:49.099Z,23.70
2018-07-30T03:07:17.486Z,23.80
2018-07-30T03:09:45.858Z,23.90
2018-07-30T03:12:14.251Z,24.00
2018-07-30T03:14:42.616Z,24.10
2018-07-30T03:17:10.999Z,24.10
2018-07-30T03:19:39.454Z,24.20
2018-07-30T03:22:07.842Z,24.30
2018-07-30T03:24:36.180Z,24.30
2018-07-30T03:27:04.550Z,24.40
2018-07-30T03:29:32.922Z,24.40
2018-07-30T03:32:01.311Z,24.50
2018-07-30T03:34:29.675Z,24.50
2018-07-30T03:36:58.074Z,24.50
2018-07-30T03:39:26.409Z,24.50
2018-07-30T03:41:54.803Z,24.50
2018-07-30T03:44:23.320Z,24.50
2018-07-30T03:46:51.713Z,24.40
2018-07-30T03:49:20.062Z,24.50
2018-07-30T03:51:48.540Z,24.50
2018-07-30T03:54:16.926Z,24.50
2018-07-30T03:56:45.250Z,24.50
2018-07-30T03:59:13.614Z,24.50
2018-07-30T04:01:41.968Z,24.50
2018-07-30T04:04:10.434Z,24.60
2018-07-30T04:06:38.787Z,24.60
2018-07-30T04:09:07.605Z,24.70
2018-07-30T04:11:36.251Z,24.70
2018-07-30T04:14:04.641Z,24.70
2018-07-30T04:16:37.235Z,24.60
2018-07-30T04:19:05.606Z,24.50
2018-07-30T04:21:34.003Z,24.50
2018-07-30T04:24:02.384Z,24.70
2018-07-30T04:26:30.717Z,24.70
2018-07-30T04:28:59.121Z,24.70
2018-07-30T04:31:27.465Z,24.70
2018-07-30T04:33:55.850Z,24.70
2018-07-30T04:36:24.232Z,24.80
2018-07-30T04:38:52.601Z,25.00
2018-07-30T04:41:20.983Z,25.00
2018-07-30T04:46:18.361Z,25.10
2018-07-30T04:48:46.713Z,25.10
2018-07-30T04:51:15.134Z,25.10
2018-07-30T04:53:43.502Z,25.20
2018-07-30T04:56:11.861Z,25.20
2018-07-30T04:58:40.262Z,25.20
2018-07-30T05:01:08.790Z,25.20
2018-07-30T05:03:37.151Z,25.20
2018-07-30T05:06:05.533Z,25.20
2018-07-30T05:08:33.992Z,25.20
2018-07-30T05:11:02.391Z,25.30
2018-07-30T05:13:30.816Z,25.10
2018-07-30T05:15:59.235Z,24.90
2018-07-30T05:18:27.646Z,24.80
2018-07-30T05:20:56.077Z,24.70
2018-07-30T05:23:24.443Z,24.60
2018-07-30T05:25:52.823Z,24.60
2018-07-30T05:28:21.265Z,24.50
2018-07-30T05:30:49.673Z,24.60
2018-07-30T05:33:18.131Z,24.60
2018-07-30T05:35:46.553Z,24.90
2018-07-30T05:38:14.964Z,24.70
2018-07-30T05:40:43.464Z,24.60
2018-07-30T05:43:11.902Z,24.50
2018-07-30T05:45:40.375Z,24.50
2018-07-30T05:50:37.183Z,24.10
2018-07-30T05:53:05.658Z,23.90
2018-07-30T05:55:34.099Z,23.70
2018-07-30T05:58:02.529Z,23.60
2018-07-30T06:00:30.990Z,23.60
2018-07-30T06:02:59.388Z,23.70
2018-07-30T06:05:27.848Z,23.90
2018-07-30T06:07:56.329Z,23.90
2018-07-30T06:10:24.816Z,24.00
2018-07-30T06:12:53.314Z,24.10
2018-07-30T06:15:21.829Z,24.20
2018-07-30T06:17:50.330Z,24.40
2018-07-30T06:20:18.762Z,24.50
2018-07-30T06:22:47.198Z,24.50
2018-07-30T06:25:15.622Z,24.60
2018-07-30T06:27:44.067Z,24.70
2018-07-30T06:30:13.256Z,24.90
2018-07-30T06:32:41.689Z,25.00
2018-07-30T06:35:10.139Z,25.10
2018-07-30T06:37:38.537Z,25.20
2018-07-30T06:40:07.102Z,25.30
2018-07-30T06:42:37.759Z,25.40
2018-07-30T06:45:06.387Z,25.60
2018-07-30T06:47:34.763Z,25.60
2018-07-30T06:50:03.305Z,25.70
2018-07-30T06:52:31.813Z,25.70
2018-07-30T06:55:00.279Z,25.70
2018-07-30T06:57:28.695Z,25.90
2018-07-30T07:02:25.278Z,26.10
2018-07-30T07:04:53.651Z,26.30
2018-07-30T07:07:22.041Z,26.50
2018-07-30T07:09:50.944Z,26.70
2018-07-30T07:12:19.322Z,26.80
2018-07-30T07:14:47.720Z,27.00
2018-07-30T07:17:16.156Z,27.10
2018-07-30T07:19:44.606Z,27.20
2018-07-30T07:22:12.975Z,27.40
2018-07-30T07:24:41.423Z,27.40
2018-07-30T07:27:09.933Z,27.60
2018-07-30T07:29:38.275Z,27.70
2018-07-30T07:32:07.241Z,27.80
2018-07-30T07:34:35.630Z,27.90
2018-07-30T07:37:04.050Z,28.00
2018-07-30T07:39:32.430Z,28.10
2018-07-30T07:42:01.336Z,28.20
2018-07-30T07:44:29.779Z,28.40
2018-07-30T07:46:58.211Z,28.50
2018-07-30T07:49:26.692Z,28.60
2018-07-30T07:51:55.104Z,28.70
2018-07-30T07:54:23.521Z,28.70
2018-07-30T07:56:51.925Z,28.80
2018-07-30T07:59:20.331Z,28.90
2018-07-30T08:01:48.782Z,28.90
2018-07-30T08:04:17.139Z,29.10
2018-07-30T08:06:45.537Z,29.20
2018-07-30T08:09:13.910Z,29.30
2018-07-30T08:11:42.352Z,29.40
2018-07-30T08:14:10.748Z,29.50
2018-07-30T08:16:39.243Z,29.60
2018-07-30T08:19:07.632Z,29.70
2018-07-30T08:21:36.052Z,29.80
2018-07-30T08:24:05.046Z,29.90
2018-07-30T08:26:33.470Z,29.90
2018-07-30T08:29:01.871Z,30.10
2018-07-30T08:31:30.316Z,30.10
2018-07-30T08:33:58.686Z,30.10
2018-07-30T08:36:27.090Z,30.20
2018-07-30T08:38:55.504Z,30.20
2018-07-30T08:41:23.963Z,30.30
2018-07-30T08:43:52.644Z,30.30
2018-07-30T08:46:21.060Z,30.50
2018-07-30T08:48:49.482Z,30.50
2018-07-30T08:51:17.940Z,30.60
2018-07-30T08:53:46.395Z,30.60
2018-07-30T08:56:14.901Z,30.60
2018-07-30T08:58:43.319Z,30.60
2018-07-30T09:01:11.722Z,30.50
2018-07-30T09:03:40.101Z,30.50
2018-07-30T09:06:08.542Z,30.60
2018-07-30T09:11:05.066Z,30.80
2018-07-30T09:13:33.541Z,30.80
2018-07-30T09:16:02.027Z,31.00
2018-07-30T09:18:30.536Z,31.00
2018-07-30T09:20:58.915Z,31.10
2018-07-30T09:23:30.121Z,31.10
2018-07-30T09:25:58.504Z,31.10
2018-07-30T09:28:26.910Z,31.20
2018-07-30T09:30:55.362Z,31.30
2018-07-30T09:33:23.786Z,31.30
2018-07-30T09:35:52.210Z,31.40
2018-07-30T09:38:20.640Z,31.50
2018-07-30T09:40:49.046Z,31.60
2018-07-30T09:43:17.478Z,31.70
2018-07-30T09:50:42.206Z,31.90
2018-07-30T09:53:10.605Z,32.10
2018-07-30T09:55:39.058Z,32.20
2018-07-30T09:58:07.455Z,32.20
2018-07-30T10:00:41.158Z,32.10
2018-07-30T10:03:09.579Z,32.20
2018-07-30T10:05:38.047Z,32.20
2018-07-30T10:08:06.513Z,32.40
2018-07-30T10:10:34.913Z,32.60
2018-07-30T10:13:03.421Z,33.00
2018-07-30T10:15:31.880Z,33.20
2018-07-30T10:20:28.423Z,33.70
2018-07-30T10:22:56.911Z,34.10
2018-07-30T10:25:25.306Z,34.30
2018-07-30T10:27:53.709Z,34.40
2018-07-30T10:30:22.114Z,34.70
2018-07-30T10:32:50.528Z,34.70
2018-07-30T10:35:18.912Z,34.80
2018-07-30T10:37:47.307Z,34.90
2018-07-30T10:40:15.746Z,35.10
2018-07-30T10:42:44.232Z,35.20
2018-07-30T10:45:12.835Z,35.20
2018-07-30T10:47:41.265Z,35.50
2018-07-30T10:50:09.753Z,35.50
2018-07-30T10:52:38.187Z,35.90
2018-07-30T10:55:06.709Z,36.10
2018-07-30T10:57:35.151Z,36.30
2018-07-30T11:00:03.608Z,36.60
2018-07-30T11:02:32.051Z,36.70
2018-07-30T11:05:00.535Z,37.30
2018-07-30T11:07:28.948Z,37.50
2018-07-30T11:12:25.466Z,37.90
2018-07-30T11:14:53.891Z,38.10
2018-07-30T11:17:22.324Z,38.30
2018-07-30T11:19:50.712Z,38.50
2018-07-30T11:22:19.110Z,39.00
2018-07-30T11:24:47.546Z,38.60
2018-07-30T11:27:15.974Z,38.30
2018-07-30T11:29:44.472Z,38.40
2018-07-30T11:32:12.822Z,38.80
2018-07-30T11:34:41.187Z,38.70
2018-07-30T11:37:09.577Z,38.80
2018-07-30T11:39:37.968Z,38.90
2018-07-30T11:42:06.754Z,38.80
2018-07-30T11:44:35.196Z,39.10
2018-07-30T11:47:03.611Z,39.00
2018-07-30T11:49:32.004Z,39.40
2018-07-30T11:52:00.440Z,39.20
2018-07-30T11:54:29.023Z,39.50
2018-07-30T11:56:57.363Z,40.00
2018-07-30T11:59:25.763Z,40.00
2018-07-30T12:01:54.309Z,39.70
2018-07-30T12:04:22.788Z,40.20
2018-07-30T12:06:51.161Z,40.20
2018-07-30T12:09:19.611Z,40.10
2018-07-30T12:11:47.974Z,40.40
2018-07-30T12:14:16.461Z,40.80
2018-07-30T12:16:44.869Z,41.20
2018-07-30T12:19:13.483Z,41.30
2018-07-30T12:21:41.921Z,41.40
2018-07-30T12:24:10.303Z,41.40
2018-07-30T12:26:38.724Z,41.30
2018-07-30T12:29:07.149Z,41.30
2018-07-30T12:31:35.598Z,41.30
2018-07-30T12:34:04.017Z,41.50
2018-07-30T12:36:32.568Z,42.00
2018-07-30T12:39:01.071Z,42.50
2018-07-30T12:41:29.509Z,43.00
2018-07-30T12:46:26.086Z,43.70
2018-07-30T12:48:54.570Z,44.40
2018-07-30T12:51:22.953Z,45.00
2018-07-30T12:56:19.486Z,46.00
2018-07-30T12:58:47.829Z,45.20
2018-07-30T13:01:16.206Z,45.60
2018-07-30T13:03:44.589Z,46.10
2018-07-30T13:06:12.977Z,45.80
2018-07-30T13:08:41.352Z,45.30
2018-07-30T13:11:09.781Z,45.50
2018-07-30T13:13:38.398Z,45.80
2018-07-30T13:16:06.875Z,45.40
2018-07-30T13:18:35.294Z,45.40
2018-07-30T13:21:03.900Z,46.00
2018-07-30T13:23:32.321Z,46.60
2018-07-30T13:26:00.795Z,47.30
2018-07-30T13:28:29.241Z,47.80
2018-07-30T13:30:57.692Z,47.20
2018-07-30T13:33:26.087Z,47.30
2018-07-30T13:35:54.730Z,47.80
2018-07-30T13:38:23.121Z,48.20
2018-07-30T13:40:51.720Z,48.40
2018-07-30T13:43:20.202Z,48.60
2018-07-30T13:45:48.655Z,48.20
2018-07-30T13:48:17.202Z,47.80
2018-07-30T13:50:45.634Z,47.90
2018-07-30T13:53:14.046Z,48.20
2018-07-30T13:55:42.619Z,48.60
2018-07-30T13:58:11.058Z,47.60
2018-07-30T14:00:39.442Z,47.90
2018-07-30T14:03:07.815Z,48.00
2018-07-30T14:05:36.216Z,48.10
2018-07-30T14:08:04.607Z,47.10
2018-07-30T14:10:33.003Z,47.30
2018-07-30T14:13:01.404Z,47.30
2018-07-30T14:15:31.079Z,47.90
2018-07-30T14:17:59.441Z,47.60
2018-07-30T14:20:27.875Z,47.10
2018-07-30T14:22:56.277Z,46.40
2018-07-30T14:25:24.672Z,45.30
2018-07-30T14:27:53.070Z,44.50
2018-07-30T14:30:21.526Z,44.00
2018-07-30T14:32:49.994Z,44.40
2018-07-30T14:35:18.354Z,44.20
2018-07-30T14:37:46.775Z,44.30
2018-07-30T14:40:15.155Z,44.60
2018-07-30T14:42:43.578Z,45.60
2018-07-30T14:45:11.995Z,46.90
2018-07-30T14:47:40.465Z,48.40
2018-07-30T14:50:09.878Z,49.80
2018-07-30T14:52:38.359Z,51.10
2018-07-30T14:55:07.510Z,50.70
2018-07-30T14:57:35.985Z,50.30
2018-07-30T15:00:05.899Z,50.30
2018-07-30T15:02:34.347Z,50.50
2018-07-30T15:05:02.711Z,51.40
2018-07-30T15:07:31.127Z,51.20
2018-07-30T15:09:59.502Z,50.50
2018-07-30T15:14:56.089Z,50.40
2018-07-30T15:17:24.636Z,50.40
2018-07-30T15:19:53.078Z,50.60
2018-07-30T15:22:21.594Z,50.60
2018-07-30T15:24:50.539Z,50.10
2018-07-30T15:27:18.961Z,49.30
2018-07-30T15:29:47.354Z,49.30
2018-07-30T15:32:15.747Z,49.00
2018-07-30T15:34:44.158Z,49.00
2018-07-30T15:37:12.591Z,48.70
2018-07-30T15:39:40.970Z,49.20
2018-07-30T15:42:09.382Z,49.60
2018-07-30T15:44:37.830Z,50.00
2018-07-30T15:47:06.242Z,49.60
2018-07-30T15:49:34.634Z,49.50
2018-07-30T15:52:03.151Z,49.50
2018-07-30T15:54:31.548Z,49.10
2018-07-30T15:57:00.011Z,48.90
2018-07-30T15:59:28.454Z,48.20
2018-07-30T16:04:25.003Z,46.60
2018-07-30T16:06:53.456Z,46.10
2018-07-30T16:09:22.039Z,45.40
2018-07-30T16:11:50.574Z,43.80
2018-07-30T16:14:19.030Z,42.20
2018-07-30T16:16:47.475Z,41.20
2018-07-30T16:19:15.901Z,40.40
2018-07-30T16:21:44.352Z,39.80
2018-07-30T16:26:41.035Z,39.00
2018-07-30T16:29:09.503Z,39.10
2018-07-30T16:31:37.939Z,39.50
2018-07-30T16:39:02.723Z,41.30
2018-07-30T16:41:31.245Z,42.10
2018-07-30T16:43:59.699Z,43.00
2018-07-30T16:48:56.776Z,43.50
2018-07-30T16:51:25.256Z,43.10
2018-07-30T16:53:53.747Z,43.00
2018-07-30T16:56:22.236Z,42.90
2018-07-30T16:58:50.893Z,43.10
2018-07-30T17:01:19.271Z,42.50
2018-07-30T17:03:47.694Z,43.10
2018-07-30T17:06:16.120Z,44.00
2018-07-30T17:08:44.610Z,45.30
2018-07-30T17:11:13.042Z,45.90
2018-07-30T17:13:41.477Z,46.50
2018-07-30T17:16:09.919Z,46.40
2018-07-30T17:18:38.597Z,45.50
2018-07-30T17:21:07.348Z,44.60
2018-07-30T17:23:35.832Z,44.10
2018-07-30T17:26:04.250Z,44.30
2018-07-30T17:28:32.823Z,44.50
2018-07-30T17:31:01.436Z,46.90
2018-07-30T17:33:29.936Z,45.20
2018-07-30T17:35:58.451Z,45.20
2018-07-30T17:38:26.887Z,44.90
2018-07-30T17:40:55.286Z,44.60
2018-07-30T17:43:23.872Z,43.50
2018-07-30T17:45:52.385Z,42.40
2018-07-30T17:48:20.830Z,41.40
2018-07-30T17:50:49.425Z,40.50
2018-07-30T17:53:17.869Z,39.60
2018-07-30T17:55:46.579Z,38.80
2018-07-30T17:58:15.018Z,38.20
2018-07-30T18:00:43.476Z,38.00
2018-07-30T18:03:11.900Z,37.70
2018-07-30T18:05:40.374Z,37.40
2018-07-30T18:08:08.778Z,37.00
2018-07-30T18:10:37.253Z,36.90
2018-07-30T18:13:05.658Z,37.40
2018-07-30T18:15:34.095Z,37.60
2018-07-30T18:18:02.562Z,37.70
2018-07-30T18:20:31.061Z,37.90
2018-07-30T18:22:59.535Z,38.10
2018-07-30T18:25:28.496Z,38.20
2018-07-30T18:27:56.873Z,38.30
2018-07-30T18:30:25.313Z,38.70
2018-07-30T18:32:53.777Z,38.90
2018-07-30T18:35:22.202Z,39.10
2018-07-30T18:37:50.607Z,38.60
2018-07-30T18:40:19.108Z,38.10
2018-07-30T18:42:47.617Z,37.80
2018-07-30T18:45:16.049Z,37.60
2018-07-30T18:47:44.454Z,37.40
2018-07-30T18:50:12.904Z,37.10
2018-07-30T18:52:41.354Z,36.80
2018-07-30T18:55:09.860Z,36.30
2018-07-30T18:57:38.291Z,35.60
2018-07-30T19:00:07.226Z,35.10
2018-07-30T19:02:35.658Z,34.60
2018-07-30T19:05:04.517Z,34.30
2018-07-30T19:07:33.001Z,33.90
2018-07-30T19:10:01.426Z,33.60
2018-07-30T19:12:29.837Z,33.30
2018-07-30T19:14:58.331Z,33.00
2018-07-30T19:17:26.784Z,32.90
2018-07-30T19:19:55.206Z,32.60
2018-07-30T19:22:23.599Z,32.50
2018-07-30T19:24:52.047Z,32.30
2018-07-30T19:27:20.479Z,32.10
2018-07-30T19:29:49.021Z,31.90
2018-07-30T19:32:17.402Z,31.80
2018-07-30T19:34:45.791Z,31.70
2018-07-30T19:37:14.268Z,31.60
2018-07-30T19:39:42.654Z,31.50
2018-07-30T19:42:11.064Z,31.40
2018-07-30T19:44:39.507Z,31.20
2018-07-30T19:47:07.950Z,31.20
2018-07-30T19:49:36.337Z,31.10
2018-07-30T19:52:04.770Z,30.90
2018-07-30T19:54:33.163Z,30.80
2018-07-30T19:57:01.624Z,30.80
2018-07-30T19:59:30.031Z,30.70
2018-07-30T20:01:58.463Z,30.60
2018-07-30T20:04:26.868Z,30.50
2018-07-30T20:06:55.313Z,30.50
2018-07-30T20:09:23.684Z,30.50
2018-07-30T20:11:52.523Z,30.40
2018-07-30T20:16:48.994Z,30.20
2018-07-30T20:19:17.444Z,30.20
2018-07-30T20:21:45.825Z,30.10
2018-07-30T20:24:14.240Z,30.10
2018-07-30T20:26:42.643Z,30.10
2018-07-30T20:29:11.048Z,30.10
2018-07-30T20:31:39.506Z,30.10
2018-07-30T20:34:07.974Z,30.10
2018-07-30T20:36:36.437Z,30.10
2018-07-30T20:39:07.152Z,30.00
2018-07-30T20:41:35.643Z,30.00
2018-07-30T20:44:04.236Z,30.00
2018-07-30T20:46:32.745Z,30.00
2018-07-30T20:49:01.209Z,30.10
2018-07-30T20:51:29.632Z,30.20
2018-07-30T20:53:58.079Z,30.10
2018-07-30T20:56:26.486Z,30.00
2018-07-30T20:58:54.939Z,30.00
2018-07-30T21:01:23.370Z,29.90
2018-07-30T21:03:51.848Z,29.80
2018-07-30T21:06:20.377Z,29.70
2018-07-30T21:08:48.820Z,29.70
2018-07-30T21:11:17.206Z,29.60
2018-07-30T21:13:45.654Z,29.50
2018-07-30T21:16:14.038Z,29.40
2018-07-30T21:21:10.741Z,29.30
2018-07-30T21:23:39.155Z,29.20
2018-07-30T21:26:07.632Z,29.10
2018-07-30T21:28:36.191Z,29.10
2018-07-30T21:31:04.707Z,29.00
2018-07-30T21:33:33.166Z,28.90
2018-07-30T21:36:01.561Z,29.00
2018-07-30T21:38:30.055Z,28.90
2018-07-30T22:24:40.431Z,28.90
2018-07-30T22:27:08.921Z,28.60
2018-07-30T22:29:37.381Z,28.50
2018-07-30T22:32:05.784Z,28.50
2018-07-30T22:34:34.283Z,28.50
2018-07-30T22:37:02.696Z,28.50
2018-07-30T22:39:31.190Z,28.50
2018-07-30T22:44:27.791Z,28.50
2018-07-30T22:46:56.229Z,28.40
2018-07-30T22:49:24.736Z,28.40
2018-07-30T22:51:53.176Z,28.30
2018-07-30T22:54:21.586Z,28.30
2018-07-30T22:56:49.954Z,28.30
2018-07-30T22:59:18.335Z,28.20
2018-07-30T23:01:46.734Z,28.20
2018-07-30T23:04:15.118Z,28.20
2018-07-30T23:06:43.467Z,28.20
2018-07-30T23:09:11.836Z,28.10
2018-07-30T23:11:40.202Z,28.10
2018-07-30T23:14:08.574Z,28.10
2018-07-30T23:16:36.938Z,27.90
2018-07-30T23:19:05.303Z,27.90
2018-07-30T23:21:34.969Z,27.90
2018-07-30T23:24:03.309Z,27.90
2018-07-30T23:26:31.666Z,27.90
2018-07-30T23:31:28.373Z,27.60
2018-07-30T23:33:56.731Z,27.60
2018-07-30T23:36:25.097Z,27.60
2018-07-30T23:38:53.458Z,27.60
2018-07-30T23:41:21.858Z,27.60
2018-07-30T23:43:51.243Z,27.60
2018-07-30T23:46:19.610Z,27.60
2018-07-30T23:48:47.991Z,27.60
2018-07-30T23:51:16.375Z,27.60
2018-07-30T23:53:44.732Z,27.60
2018-07-30T23:56:13.113Z,27.70
2018-07-30T23:58:41.483Z,27.60
